Luling, LA (70070)

2:42 PM CDT on July 24, 2016 (GMT -0500)
Luling | | Change Station

Elev 23 ft 29.92 °N, 90.34 °W | Updated 2 minutes ago

Overcast
Overcast
91.9 °F
Feels Like 114 °F
N
5.1
Wind Variable Wind from SSW

Today
High -- | Low -- °F
--% Chance of Precip.
Yesterday
High -- | Low -- °F
Precip. -- in
Pressure 29.98 in
Visibility 10.0 miles
Clouds Few 2500 ft
Scattered Clouds 3200 ft
Mostly Cloudy 4500 ft
Overcast 20000 ft
Heat Index 114 °F
Dew Point 82 °F
Humidity 72%
Rainfall 0.00 in
Snow Depth Not available.
6:16 AM 7:59 PM
Waning Gibbous, 73% visible
METAR KMSY 241853Z 14011KT 10SM FEW025 SCT032 BKN045 OVC200 31/25 A2997 RMK AO2 SLP151 CB DSNT SW-W-NW T03110250
Pressure 29.98 in
Visibility 10.0 miles
Clouds Few 2500 ft
Scattered Clouds 3200 ft
Mostly Cloudy 4500 ft
Overcast 20000 ft
Heat Index 114 °F
Dew Point 82 °F
Humidity 72%
Rainfall 0.00 in
Snow Depth Not available.
6:16 AM 7:59 PM
Waning Gibbous, 73% visible
METAR KMSY 241853Z 14011KT 10SM FEW025 SCT032 BKN045 OVC200 31/25 A2997 RMK AO2 SLP151 CB DSNT SW-W-NW T03110250

10-Day Weather Forecast

Almanac

Astronomy

Jul. 24, 2016 Rise Set
Actual Time
Civil Twilight
Nautical Twilight
Astronomical Twilight
Moon
Length of Visible Light
Length of Day
Tomorrow will be .
, % of the Moon is Illuminated

Today's Extremes

State Highs State Lows

Community

WunderPhotos

Upload Photos

1,927,176 photos uploaded!

WunderBlog® & News

Nearby

Air Quality

  Air Quality AQ Index Pollutant
Not available.

Snow Depth

Station Depth Elevation

Earthquake Activity

City Distance Mag. Time & Date
Minimum magnitude displayed is 2.5.

Coastal Water Temperatures

Place Temperature

Stations

Nearby Weather Stations

Station Location Temp. Windchill Dew Point Humidity Wind Precip. Elev Updated Type
                   

Watches & Warnings

There are currently no watches in effect.